Time;durP1;ratioP1;P1;durP2;ratioP2;P2;SDS_P1;SDS_P2;PMS_P1;PMS_P2;Temp;Humidity;BMP_temperature;BMP_pressure;BME280_temperature;BME280_humidity;BME280_pressure;Samples;Min_cycle;Max_cycle;Signal;HPM_P1;HPM_P2
2023/01/17 00:01:42;;;;;;;0.98;0.40;;;3.90;99.90;;;;;;5073314;28;20135;-68
2023/01/17 00:09:54;;;;;;;1.02;0.30;;;4.00;99.90;;;;;;5073087;28;20048;-68
2023/01/17 00:12:20;;;;;;;1.02;0.25;;;3.90;99.90;;;;;;5073351;28;20048;-68
2023/01/17 00:14:47;;;;;;;0.75;0.20;;;4.00;99.90;;;;;;5073030;28;20493;-68
2023/01/17 00:17:12;;;;;;;0.85;0.20;;;3.90;99.90;;;;;;5072783;28;20090;-68
2023/01/17 01:34:22;;;;;;;4.30;0.40;;;3.00;99.90;;;;;;5071771;28;20052;-68
2023/01/17 01:36:47;;;;;;;7.90;0.85;;;3.10;99.90;;;;;;5071803;28;20040;-68
2023/01/17 01:39:13;;;;;;;7.88;0.90;;;3.10;99.90;;;;;;5071681;28;20127;-68
2023/01/17 01:41:38;;;;;;;5.70;0.70;;;3.10;99.90;;;;;;5071986;28;20044;-68
2023/01/17 01:44:04;;;;;;;5.75;0.80;;;3.20;99.90;;;;;;5071773;28;20491;-68
2023/01/17 01:46:40;;;;;;;10.52;1.33;;;3.10;99.90;;;;;;5071962;28;20033;-68
2023/01/17 01:49:20;;;;;;;13.40;1.23;;;3.10;99.90;;;;;;5071470;28;20056;-68
2023/01/17 01:51:59;;;;;;;8.13;1.00;;;3.10;99.90;;;;;;5071993;28;20049;-68
2023/01/17 01:54:33;;;;;;;4.85;0.80;;;3.20;99.90;;;;;;5071622;28;20041;-68
2023/01/17 01:57:01;;;;;;;10.10;1.00;;;3.20;99.90;;;;;;5071609;28;20049;-68
2023/01/17 01:59:29;;;;;;;7.13;0.77;;;3.10;99.90;;;;;;5071577;28;20045;-68
2023/01/17 02:01:56;;;;;;;8.57;0.82;;;3.10;99.90;;;;;;5071582;28;20044;-68
2023/01/17 02:04:24;;;;;;;4.05;0.60;;;3.10;99.90;;;;;;5071523;28;20083;-68
2023/01/17 02:07:01;;;;;;;6.25;0.90;;;3.00;99.90;;;;;;5071517;28;20052;-68
2023/01/17 02:09:26;;;;;;;4.72;0.70;;;3.00;99.90;;;;;;5071744;28;20509;-68
2023/01/17 02:11:52;;;;;;;3.65;0.75;;;3.00;99.90;;;;;;5071476;28;20072;-68
2023/01/17 02:14:20;;;;;;;7.38;0.80;;;3.00;99.90;;;;;;5054642;28;20174;-68
2023/01/17 02:17:15;;;;;;;6.57;1.00;;;3.00;99.90;;;;;;5071444;28;20052;-68
2023/01/17 02:20:00;;;;;;;5.13;0.70;;;3.00;99.90;;;;;;5065718;28;20076;-68
2023/01/17 02:23:00;;;;;;;7.05;0.70;;;3.00;99.90;;;;;;5071385;28;20036;-68
2023/01/17 02:25:37;;;;;;;6.80;1.63;;;3.00;99.90;;;;;;5071378;28;20036;-68
2023/01/17 02:28:18;;;;;;;6.90;0.60;;;2.90;99.90;;;;;;5071284;28;20053;-68
2023/01/17 02:30:51;;;;;;;7.97;1.00;;;3.00;99.90;;;;;;5072516;28;20136;-68
2023/01/17 02:33:23;;;;;;;8.73;1.15;;;2.90;99.90;;;;;;5071566;28;20131;-68
2023/01/17 02:36:12;;;;;;;5.63;0.68;;;2.90;99.90;;;;;;5071225;28;20040;-68
2023/01/17 02:39:08;;;;;;;4.90;0.90;;;3.00;99.90;;;;;;5071168;28;20086;-68
2023/01/17 02:41:40;;;;;;;7.35;0.80;;;2.90;99.90;;;;;;5073124;28;20082;-68
2023/01/17 02:44:14;;;;;;;4.80;1.00;;;3.00;99.90;;;;;;5074871;28;20048;-68
2023/01/17 02:47:20;;;;;;;5.18;0.60;;;3.00;99.90;;;;;;5074991;28;20072;-68
2023/01/17 02:49:46;;;;;;;3.95;0.40;;;3.10;99.90;;;;;;5063243;28;20095;-68
2023/01/17 02:52:21;;;;;;;7.65;0.85;;;3.10;99.90;;;;;;5074642;28;20044;-71
2023/01/17 02:55:08;;;;;;;6.85;0.60;;;3.10;99.90;;;;;;5074568;28;20041;-70
2023/01/17 02:58:03;;;;;;;5.68;0.63;;;3.10;99.90;;;;;;5074841;28;20398;-71
2023/01/17 03:00:37;;;;;;;8.73;0.70;;;3.10;99.90;;;;;;5074516;28;20055;-71
2023/01/17 03:03:34;;;;;;;10.70;0.90;;;3.10;99.90;;;;;;5074470;28;20379;-71
2023/01/17 03:06:12;;;;;;;6.25;1.08;;;3.10;99.90;;;;;;5070065;28;20109;-71
2023/01/17 03:08:43;;;;;;;7.70;0.80;;;3.10;99.90;;;;;;5074265;28;20048;-71
2023/01/17 03:11:11;;;;;;;6.22;1.17;;;3.10;99.90;;;;;;5057671;28;20040;-71
2023/01/17 03:13:36;;;;;;;9.90;1.50;;;3.10;99.90;;;;;;5074539;28;20041;-70
2023/01/17 03:16:05;;;;;;;6.22;1.05;;;3.10;99.90;;;;;;5074079;28;20040;-71
2023/01/17 03:18:31;;;;;;;8.30;1.15;;;3.00;99.90;;;;;;5074115;28;20050;-71
2023/01/17 03:20:57;;;;;;;5.28;0.60;;;2.90;99.90;;;;;;5074410;28;20040;-71
2023/01/17 03:23:22;;;;;;;9.52;0.75;;;2.90;99.90;;;;;;5074289;28;20470;-71
2023/01/17 03:25:48;;;;;;;5.20;0.60;;;2.90;99.90;;;;;;5075298;28;20540;-71
2023/01/17 03:28:13;;;;;;;6.10;1.20;;;2.80;99.90;;;;;;5073936;28;20044;-71
2023/01/17 03:30:39;;;;;;;6.28;0.68;;;2.80;99.90;;;;;;5073952;28;20040;-71
2023/01/17 03:33:04;;;;;;;6.63;0.80;;;2.80;99.90;;;;;;5073924;28;20067;-71
2023/01/17 03:35:30;;;;;;;6.70;1.00;;;2.70;99.90;;;;;;5073798;28;20094;-71
2023/01/17 03:37:56;;;;;;;9.00;1.00;;;2.80;99.90;;;;;;5073708;28;20043;-71
2023/01/17 03:40:21;;;;;;;7.68;1.63;;;2.80;99.90;;;;;;5074056;28;20036;-71
2023/01/17 03:42:47;;;;;;;3.58;0.68;;;2.90;99.90;;;;;;5073800;28;20432;-71
2023/01/17 03:45:13;;;;;;;4.53;0.70;;;2.80;99.90;;;;;;5073680;28;20044;-71
2023/01/17 03:47:38;;;;;;;7.10;1.00;;;3.00;99.90;;;;;;5073680;28;20044;-71
2023/01/17 03:50:04;;;;;;;5.45;0.63;;;3.00;99.90;;;;;;5073420;28;20040;-71
2023/01/17 03:52:30;;;;;;;6.13;0.93;;;3.00;99.90;;;;;;5073722;28;20036;-71
2023/01/17 03:54:55;;;;;;;4.90;0.95;;;3.00;99.90;;;;;;5073555;28;20040;-71
2023/01/17 03:57:21;;;;;;;4.75;0.60;;;2.90;99.90;;;;;;5073468;28;20448;-71
2023/01/17 03:59:47;;;;;;;5.35;0.77;;;3.00;99.90;;;;;;5073587;28;20033;-71
2023/01/17 04:02:13;;;;;;;4.68;0.63;;;2.80;99.90;;;;;;5073596;28;20071;-71
2023/01/17 04:04:38;;;;;;;9.18;1.00;;;2.80;99.90;;;;;;5073497;28;20497;-71
2023/01/17 04:07:04;;;;;;;9.25;0.80;;;2.80;99.90;;;;;;5074502;28;20032;-71
2023/01/17 04:09:32;;;;;;;5.97;1.02;;;2.80;99.90;;;;;;5073081;28;20098;-71
2023/01/17 04:11:59;;;;;;;5.60;0.70;;;2.80;99.90;;;;;;5074411;28;20037;-71
2023/01/17 04:14:24;;;;;;;6.20;0.90;;;2.80;99.90;;;;;;5073027;28;20044;-71
2023/01/17 04:16:50;;;;;;;4.63;0.50;;;2.70;99.90;;;;;;5073307;28;20113;-71
2023/01/17 04:19:17;;;;;;;8.02;1.25;;;2.70;99.90;;;;;;5073203;28;20119;-71
2023/01/17 04:21:43;;;;;;;8.27;0.90;;;2.60;99.90;;;;;;5072945;28;20045;-71
2023/01/17 04:24:08;;;;;;;3.90;0.70;;;2.60;99.90;;;;;;5073236;28;20048;-71
2023/01/17 04:26:34;;;;;;;8.15;0.90;;;2.60;99.90;;;;;;5072847;28;20533;-71
2023/01/17 04:28:59;;;;;;;7.10;1.00;;;2.50;99.90;;;;;;5072727;28;20064;-71
2023/01/17 04:31:25;;;;;;;7.53;1.10;;;2.50;99.90;;;;;;5073307;28;20033;-71
2023/01/17 04:33:51;;;;;;;8.07;1.30;;;2.50;99.90;;;;;;5072587;28;20048;-71
2023/01/17 04:36:16;;;;;;;8.68;1.08;;;2.40;99.90;;;;;;5073480;28;20048;-71
2023/01/17 04:38:42;;;;;;;8.35;0.98;;;2.40;99.90;;;;;;5073751;28;20072;-71
2023/01/17 04:41:08;;;;;;;7.40;1.02;;;2.50;99.90;;;;;;5072555;28;20045;-71
2023/01/17 04:43:33;;;;;;;7.25;0.88;;;2.50;99.90;;;;;;5072510;28;20043;-71
2023/01/17 04:46:00;;;;;;;6.88;1.00;;;2.50;99.90;;;;;;5072453;28;20051;-70
2023/01/17 04:48:26;;;;;;;7.85;1.17;;;2.40;99.90;;;;;;5072593;28;20394;-71
2023/01/17 04:50:59;;;;;;;11.05;2.25;;;2.40;99.90;;;;;;5072318;28;20047;-71
2023/01/17 04:53:24;;;;;;;7.35;0.90;;;2.50;99.90;;;;;;5073892;28;20040;-71
2023/01/17 04:55:50;;;;;;;4.47;0.77;;;2.40;99.90;;;;;;5073718;28;20166;-70
2023/01/17 04:58:15;;;;;;;4.07;0.60;;;2.40;99.90;;;;;;5072470;28;20051;-71
2023/01/17 05:00:41;;;;;;;5.80;0.85;;;2.30;99.90;;;;;;5072228;28;20504;-71
2023/01/17 05:03:06;;;;;;;10.85;1.40;;;2.30;99.90;;;;;;5072433;28;20036;-71
2023/01/17 05:05:32;;;;;;;6.47;0.70;;;2.30;99.90;;;;;;5072150;28;20536;-71
2023/01/17 05:07:58;;;;;;;5.45;1.00;;;2.30;99.90;;;;;;5072064;28;20517;-71
2023/01/17 05:10:24;;;;;;;7.93;0.80;;;2.30;99.90;;;;;;5072086;28;20119;-71
2023/01/17 05:12:57;;;;;;;3.40;0.90;;;2.30;99.90;;;;;;5072338;28;20044;-71
2023/01/17 05:15:24;;;;;;;5.05;1.00;;;2.30;99.90;;;;;;5072054;28;20063;-71
2023/01/17 05:17:51;;;;;;;5.93;0.70;;;2.30;99.90;;;;;;5073450;28;20044;-70
2023/01/17 05:20:17;;;;;;;7.60;0.63;;;2.30;99.90;;;;;;5071967;28;20036;-70
2023/01/17 05:22:42;;;;;;;5.47;0.70;;;2.20;99.90;;;;;;5072194;28;20105;-71
2023/01/17 05:25:08;;;;;;;4.53;0.80;;;2.20;99.90;;;;;;5071934;28;20497;-71
2023/01/17 05:27:34;;;;;;;5.15;0.70;;;2.10;99.90;;;;;;5071924;28;20040;-71
2023/01/17 05:30:00;;;;;;;4.40;0.73;;;2.10;99.90;;;;;;5071748;28;20085;-71
2023/01/17 05:32:25;;;;;;;7.13;0.60;;;2.10;99.90;;;;;;5072156;28;20072;-71
2023/01/17 05:34:51;;;;;;;7.07;1.63;;;2.00;99.90;;;;;;5071928;28;20489;-71
2023/01/17 05:37:16;;;;;;;8.25;1.40;;;2.10;99.90;;;;;;5073014;28;20048;-71
2023/01/17 05:39:42;;;;;;;6.90;0.73;;;2.00;99.90;;;;;;5073263;28;20033;-71
2023/01/17 05:42:07;;;;;;;8.57;1.08;;;2.00;99.90;;;;;;5071728;28;20563;-70
2023/01/17 05:44:33;;;;;;;8.50;1.08;;;1.90;99.90;;;;;;5071759;28;20051;-71
2023/01/17 05:46:59;;;;;;;5.95;0.73;;;1.90;99.90;;;;;;5071769;28;20036;-71
2023/01/17 05:49:24;;;;;;;3.50;0.65;;;1.90;99.90;;;;;;5071715;28;20056;-71
2023/01/17 05:51:50;;;;;;;3.38;0.70;;;1.90;99.90;;;;;;5071692;28;20123;-71
2023/01/17 05:54:16;;;;;;;7.43;0.85;;;1.90;99.90;;;;;;5071559;28;20049;-70
2023/01/17 05:56:42;;;;;;;11.88;1.15;;;1.80;99.90;;;;;;5071625;28;20036;-71
2023/01/17 05:59:07;;;;;;;8.85;1.13;;;1.80;99.90;;;;;;5073047;28;20062;-71
2023/01/17 06:01:33;;;;;;;6.90;0.77;;;1.80;99.90;;;;;;5071624;28;20131;-71
2023/01/17 06:03:58;;;;;;;5.05;1.02;;;1.80;99.90;;;;;;5071553;28;20071;-71
2023/01/17 06:06:24;;;;;;;4.82;0.80;;;1.80;99.90;;;;;;5071537;28;20036;-71
2023/01/17 06:08:50;;;;;;;11.68;1.02;;;1.70;99.90;;;;;;5071421;28;20097;-71
2023/01/17 06:11:17;;;;;;;7.35;0.82;;;1.70;99.90;;;;;;5071487;28;20040;-71
2023/01/17 06:13:42;;;;;;;6.30;1.05;;;1.60;99.90;;;;;;5071469;28;20041;-71
2023/01/17 06:16:08;;;;;;;5.00;0.88;;;1.60;99.90;;;;;;5072502;28;20050;-70
2023/01/17 06:18:34;;;;;;;6.30;0.93;;;1.50;99.90;;;;;;5076489;28;20037;-70
2023/01/17 06:20:59;;;;;;;7.07;0.70;;;1.50;99.90;;;;;;5075286;28;20040;-70
2023/01/17 06:23:25;;;;;;;10.45;1.05;;;1.50;99.90;;;;;;5075230;28;20036;-71
2023/01/17 06:25:50;;;;;;;10.27;1.20;;;1.50;99.90;;;;;;5075437;28;20047;-71
2023/01/17 06:28:18;;;;;;;7.90;1.30;;;1.50;99.90;;;;;;5076337;28;20432;-70
2023/01/17 06:30:44;;;;;;;11.63;1.10;;;1.40;99.90;;;;;;5075084;28;20083;-71
2023/01/17 06:33:11;;;;;;;9.23;1.20;;;1.40;99.90;;;;;;5075023;28;20072;-71
2023/01/17 06:35:39;;;;;;;9.85;1.20;;;1.40;99.90;;;;;;5075041;28;20109;-71
2023/01/17 06:38:04;;;;;;;9.25;1.33;;;1.40;99.90;;;;;;5058176;28;20404;-71
2023/01/17 06:40:30;;;;;;;4.88;0.85;;;1.40;99.90;;;;;;5076164;28;20119;-71
2023/01/17 06:43:00;;;;;;;5.63;0.90;;;1.50;99.90;;;;;;5076337;28;20038;-71
2023/01/17 06:45:26;;;;;;;6.28;0.80;;;1.50;99.90;;;;;;5076289;28;20080;-71
2023/01/17 06:47:51;;;;;;;6.07;0.75;;;1.50;99.90;;;;;;5058249;28;20044;-70
2023/01/17 06:50:17;;;;;;;6.32;1.33;;;1.50;99.90;;;;;;5075892;28;20412;-71
2023/01/17 06:52:52;;;;;;;13.65;1.00;;;1.60;99.90;;;;;;5074913;28;20072;-70
2023/01/17 06:55:18;;;;;;;6.03;0.75;;;1.50;99.90;;;;;;5074744;28;20047;-70
2023/01/17 06:57:43;;;;;;;10.93;0.90;;;1.50;99.90;;;;;;5074846;28;20033;-70
2023/01/17 07:00:11;;;;;;;8.00;1.02;;;1.50;99.90;;;;;;5074438;28;20535;-70
2023/01/17 07:02:37;;;;;;;5.93;0.88;;;1.50;99.90;;;;;;5074491;28;20045;-71
2023/01/17 07:05:02;;;;;;;14.35;2.30;;;1.60;99.90;;;;;;5074448;28;20044;-71
2023/01/17 07:07:28;;;;;;;10.43;1.00;;;1.50;99.90;;;;;;5075878;28;20033;-71
2023/01/17 07:09:53;;;;;;;4.32;0.77;;;1.60;99.90;;;;;;5074522;28;20177;-70
2023/01/17 07:12:19;;;;;;;8.20;0.90;;;1.60;99.90;;;;;;5075845;28;20397;-71
2023/01/17 07:14:45;;;;;;;6.25;0.93;;;1.50;99.90;;;;;;5074176;28;20485;-71
2023/01/17 07:17:10;;;;;;;4.50;1.23;;;1.50;99.90;;;;;;5074253;28;20133;-71
2023/01/17 07:19:36;;;;;;;5.18;0.68;;;1.60;99.90;;;;;;5074149;28;20041;-70
2023/01/17 07:22:01;;;;;;;5.65;0.65;;;1.60;99.90;;;;;;5074190;28;20036;-70
2023/01/17 07:24:27;;;;;;;10.20;0.73;;;1.60;99.90;;;;;;5074381;28;20036;-70
2023/01/17 07:26:52;;;;;;;6.80;1.00;;;1.60;99.90;;;;;;5073911;28;20459;-71
2023/01/17 07:29:18;;;;;;;3.40;0.40;;;1.60;99.90;;;;;;5074210;28;20086;-71
2023/01/17 07:31:44;;;;;;;5.43;0.73;;;1.60;99.90;;;;;;5073974;28;20436;-71
2023/01/17 07:34:10;;;;;;;7.53;0.60;;;1.60;99.90;;;;;;5074089;28;20044;-71
2023/01/17 07:36:36;;;;;;;3.65;0.70;;;1.50;99.90;;;;;;5073893;28;20036;-71
2023/01/17 07:39:02;;;;;;;6.35;0.90;;;1.50;99.90;;;;;;5074014;28;20059;-71
2023/01/17 07:41:31;;;;;;;4.72;0.52;;;1.50;99.90;;;;;;5074032;28;20048;-71
2023/01/17 07:43:58;;;;;;;6.45;0.60;;;1.40;99.90;;;;;;5074005;28;20036;-71
2023/01/17 07:46:23;;;;;;;5.00;0.75;;;1.40;99.90;;;;;;5074947;28;20437;-71
2023/01/17 07:48:49;;;;;;;5.38;0.70;;;1.40;99.90;;;;;;5073389;28;20499;-71
2023/01/17 07:51:16;;;;;;;5.65;0.80;;;1.40;99.90;;;;;;5073652;28;20119;-71
2023/01/17 07:53:42;;;;;;;7.47;0.77;;;1.40;99.90;;;;;;5073587;28;20040;-71
2023/01/17 07:56:08;;;;;;;2.40;0.60;;;1.40;99.90;;;;;;5073443;28;20063;-71
2023/01/17 07:58:34;;;;;;;5.32;0.57;;;1.30;99.90;;;;;;5073609;28;20037;-71
2023/01/17 08:01:07;;;;;;;6.55;1.00;;;1.40;99.90;;;;;;5073379;28;20159;-71
2023/01/17 08:03:38;;;;;;;11.23;1.23;;;1.40;99.90;;;;;;5073592;28;20154;-71
2023/01/17 08:06:06;;;;;;;7.22;0.70;;;1.30;99.90;;;;;;5073288;28;20455;-71
2023/01/17 08:08:31;;;;;;;5.97;0.70;;;1.30;99.90;;;;;;5073126;28;20048;-71
2023/01/17 08:10:57;;;;;;;8.32;0.63;;;1.30;99.90;;;;;;5073204;28;20056;-71
2023/01/17 08:13:23;;;;;;;6.80;0.80;;;1.40;99.90;;;;;;5074524;28;20029;-70
2023/01/17 08:15:49;;;;;;;5.47;0.80;;;1.40;99.90;;;;;;5073067;28;20047;-70
2023/01/17 08:18:16;;;;;;;6.28;0.90;;;1.50;99.90;;;;;;5072965;28;20534;-71
2023/01/17 08:20:44;;;;;;;7.90;0.80;;;1.50;99.90;;;;;;5073267;28;20510;-71
2023/01/17 08:23:10;;;;;;;6.30;0.93;;;1.40;99.90;;;;;;5072967;28;20497;-70
2023/01/17 08:25:36;;;;;;;4.78;1.00;;;1.50;99.90;;;;;;5072915;28;20051;-70
2023/01/17 08:28:01;;;;;;;6.22;0.68;;;1.50;99.90;;;;;;5072890;28;20040;-70
2023/01/17 08:30:27;;;;;;;6.03;0.77;;;1.50;99.90;;;;;;5072856;28;20460;-70
2023/01/17 08:32:53;;;;;;;7.50;0.63;;;1.50;99.90;;;;;;5072687;28;20123;-70
2023/01/17 08:35:20;;;;;;;3.83;0.60;;;1.50;99.90;;;;;;5074425;28;20048;-71
2023/01/17 08:37:46;;;;;;;6.22;0.98;;;1.50;99.90;;;;;;5073890;28;20038;-71
2023/01/17 08:40:15;;;;;;;4.40;0.68;;;1.60;99.90;;;;;;5071945;28;20383;-70
2023/01/17 08:42:42;;;;;;;10.05;1.23;;;1.60;99.90;;;;;;5072789;28;20055;-71
2023/01/17 08:45:10;;;;;;;3.63;0.73;;;1.60;99.90;;;;;;5072494;28;20052;-70
2023/01/17 08:47:37;;;;;;;9.40;0.90;;;1.70;99.90;;;;;;5072715;28;20044;-70
2023/01/17 08:50:05;;;;;;;5.88;0.70;;;1.70;99.90;;;;;;5073517;28;20059;-70
2023/01/17 08:52:32;;;;;;;6.65;1.42;;;1.70;99.90;;;;;;5072341;28;20056;-71
2023/01/17 08:54:58;;;;;;;3.85;0.70;;;1.70;99.90;;;;;;5072251;28;20040;-70
2023/01/17 08:57:23;;;;;;;5.18;0.73;;;1.70;99.90;;;;;;5072300;28;20039;-70
2023/01/17 08:59:49;;;;;;;4.82;0.80;;;1.80;99.90;;;;;;5072178;28;20040;-71
2023/01/17 09:02:18;;;;;;;5.40;0.80;;;1.80;99.90;;;;;;5073484;28;20497;-70
2023/01/17 09:04:45;;;;;;;5.72;1.17;;;1.80;99.90;;;;;;5072441;28;20383;-70
2023/01/17 09:07:11;;;;;;;5.18;0.80;;;1.90;99.90;;;;;;5072537;28;20458;-70
2023/01/17 09:09:36;;;;;;;5.90;0.80;;;1.90;99.90;;;;;;5073325;28;20127;-70
2023/01/17 09:12:02;;;;;;;8.15;1.70;;;2.00;99.90;;;;;;5072534;28;20120;-70
2023/01/17 09:14:28;;;;;;;7.95;0.77;;;1.90;99.90;;;;;;5072467;28;20520;-70
2023/01/17 09:16:53;;;;;;;5.72;1.08;;;2.00;99.90;;;;;;5072621;28;20093;-70
2023/01/17 09:19:19;;;;;;;4.03;1.20;;;1.90;99.90;;;;;;5071996;28;20408;-70
2023/01/17 09:21:44;;;;;;;5.88;0.90;;;1.90;99.90;;;;;;5072000;28;20037;-70
2023/01/17 09:24:11;;;;;;;6.68;1.23;;;1.90;99.90;;;;;;5071958;28;20040;-70
2023/01/17 09:26:37;;;;;;;7.93;1.30;;;2.00;99.90;;;;;;5071932;28;20405;-70
2023/01/17 09:29:02;;;;;;;7.13;1.10;;;2.00;99.90;;;;;;5071816;28;20499;-70
2023/01/17 09:31:29;;;;;;;7.32;1.02;;;2.00;99.90;;;;;;5073167;28;20063;-70
2023/01/17 09:33:56;;;;;;;5.65;1.13;;;2.10;99.90;;;;;;5072159;28;20032;-70
2023/01/17 09:36:22;;;;;;;5.15;1.40;;;2.10;99.90;;;;;;5071715;28;20382;-70
2023/01/17 09:38:48;;;;;;;10.35;1.38;;;2.10;99.90;;;;;;5071747;28;20079;-70
2023/01/17 09:41:23;;;;;;;10.70;1.23;;;2.10;99.90;;;;;;5071804;28;20108;-71
2023/01/17 09:44:14;;;;;;;8.23;1.23;;;2.10;99.90;;;;;;5071758;28;20127;-72
2023/01/17 09:46:43;;;;;;;5.32;1.02;;;2.20;99.90;;;;;;5066842;28;20135;-71
2023/01/17 09:49:13;;;;;;;6.75;1.30;;;2.20;99.90;;;;;;5071662;28;20045;-71
2023/01/17 09:51:40;;;;;;;5.18;1.00;;;2.30;99.90;;;;;;5073815;28;20536;-71
2023/01/17 09:54:20;;;;;;;9.70;1.25;;;2.40;99.90;;;;;;5075737;28;20045;-71
2023/01/17 09:57:00;;;;;;;9.48;1.38;;;2.40;99.90;;;;;;5076085;28;20056;-70
2023/01/17 09:59:42;;;;;;;5.88;1.00;;;2.40;99.90;;;;;;5075717;28;20041;-70
2023/01/17 10:02:39;;;;;;;6.07;1.13;;;2.50;99.90;;;;;;5058978;28;20075;-71
2023/01/17 10:05:36;;;;;;;6.72;1.15;;;2.50;99.90;;;;;;5075619;28;20054;-71
2023/01/17 10:08:15;;;;;;;5.22;1.05;;;2.60;99.90;;;;;;5075520;28;20505;-71
2023/01/17 10:11:18;;;;;;;7.47;1.15;;;2.60;99.90;;;;;;5075529;28;20041;-71
2023/01/17 10:13:57;;;;;;;7.50;1.47;;;2.60;99.90;;;;;;5075412;28;20417;-71
2023/01/17 10:16:56;;;;;;;6.70;0.93;;;2.70;99.90;;;;;;5075333;28;20122;-70
2023/01/17 10:19:41;;;;;;;6.88;1.20;;;2.80;99.90;;;;;;5076482;28;20127;-71
2023/01/17 10:22:29;;;;;;;8.18;1.60;;;2.80;99.90;;;;;;5075300;28;20044;-71
2023/01/17 10:25:14;;;;;;;7.93;1.48;;;2.90;99.90;;;;;;5075486;28;20124;-71
2023/01/17 10:27:47;;;;;;;4.25;1.10;;;3.00;99.90;;;;;;5076905;28;20389;-71
2023/01/17 10:30:22;;;;;;;5.90;1.13;;;3.00;99.90;;;;;;5076367;28;20132;-71
2023/01/17 10:32:49;;;;;;;6.68;1.10;;;3.00;99.90;;;;;;5075451;28;20324;-71
2023/01/17 10:35:43;;;;;;;9.82;1.45;;;3.00;99.90;;;;;;5074883;28;20049;-71
2023/01/17 10:38:13;;;;;;;10.50;1.40;;;3.10;99.90;;;;;;5075168;28;20155;-71
2023/01/17 10:40:43;;;;;;;8.88;1.35;;;3.10;99.90;;;;;;5075121;28;20076;-71
2023/01/17 10:43:43;;;;;;;7.72;1.27;;;3.20;99.90;;;;;;5076459;28;20052;-71
2023/01/17 10:46:41;;;;;;;5.45;0.90;;;3.30;99.90;;;;;;5075177;28;20055;-71
2023/01/17 10:49:17;;;;;;;4.57;1.10;;;3.30;99.90;;;;;;5070935;28;20141;-70
2023/01/17 10:51:58;;;;;;;7.63;1.20;;;3.40;99.90;;;;;;5074703;28;20512;-70
2023/01/17 10:54:42;;;;;;;6.55;1.25;;;3.40;99.90;;;;;;5075786;28;20417;-70
2023/01/17 10:57:16;;;;;;;8.32;1.33;;;3.50;99.90;;;;;;5074639;28;20052;-70
2023/01/17 10:59:42;;;;;;;8.77;1.58;;;3.60;99.90;;;;;;5074535;28;20081;-71
2023/01/17 11:02:17;;;;;;;6.70;0.93;;;3.60;99.90;;;;;;5075542;28;20048;-71
2023/01/17 11:04:47;;;;;;;11.32;1.40;;;3.60;99.90;;;;;;5074588;28;20094;-71
2023/01/17 11:07:25;;;;;;;9.20;1.50;;;3.80;99.90;;;;;;5074438;28;20055;-71
2023/01/17 11:09:53;;;;;;;8.15;1.20;;;3.90;99.90;;;;;;5075692;28;20033;-71
2023/01/17 11:12:25;;;;;;;10.38;1.58;;;4.00;99.90;;;;;;5074323;28;20032;-70
2023/01/17 11:15:18;;;;;;;5.75;1.10;;;4.10;99.90;;;;;;5074226;28;20059;-71
2023/01/17 11:17:51;;;;;;;6.25;1.10;;;4.20;99.90;;;;;;5074320;28;20036;-71
2023/01/17 11:20:34;;;;;;;9.20;1.48;;;4.20;99.90;;;;;;5074301;28;20040;-71
2023/01/17 11:23:14;;;;;;;4.43;0.80;;;4.40;99.90;;;;;;5074197;28;20052;-71
2023/01/17 11:25:47;;;;;;;5.88;1.30;;;4.50;99.90;;;;;;5057457;28;20056;-71
2023/01/17 11:28:21;;;;;;;5.88;0.95;;;4.60;99.90;;;;;;5074047;28;20051;-71
2023/01/17 11:30:52;;;;;;;5.03;0.82;;;4.80;99.90;;;;;;5075263;28;20040;-71
2023/01/17 11:33:55;;;;;;;3.65;0.80;;;5.70;99.90;;;;;;5074262;28;20051;-71
2023/01/17 11:36:26;;;;;;;8.68;1.27;;;6.90;99.90;;;;;;5073863;28;20443;-71
2023/01/17 11:38:55;;;;;;;5.60;1.23;;;7.80;99.90;;;;;;5073757;28;20032;-72
2023/01/17 11:41:22;;;;;;;7.10;1.38;;;8.30;99.90;;;;;;5073812;28;20533;-71
2023/01/17 11:43:53;;;;;;;8.05;1.17;;;8.80;99.90;;;;;;5075001;28;20393;-71
2023/01/17 11:46:20;;;;;;;6.93;1.02;;;9.20;99.90;;;;;;5074956;28;20059;-71
2023/01/17 11:48:54;;;;;;;4.93;0.90;;;9.60;99.90;;;;;;5073452;28;20076;-71
2023/01/17 11:51:22;;;;;;;4.90;1.00;;;9.60;99.90;;;;;;5073688;28;20131;-71
2023/01/17 11:53:48;;;;;;;4.78;1.00;;;9.60;99.90;;;;;;5073547;28;20055;-71
2023/01/17 11:56:35;;;;;;;7.78;1.33;;;9.90;99.90;;;;;;5073378;28;20053;-71
2023/01/17 11:59:20;;;;;;;7.22;1.25;;;10.00;99.90;;;;;;5074529;28;20082;-71
2023/01/17 12:02:30;;;;;;;4.53;0.85;;;10.10;99.90;;;;;;5073437;28;20055;-71
2023/01/17 12:05:18;;;;;;;9.48;1.23;;;10.20;99.90;;;;;;5063136;28;20132;-71
2023/01/17 12:08:10;;;;;;;8.38;1.40;;;10.60;99.90;;;;;;5073278;28;20520;-71
2023/01/17 12:10:55;;;;;;;5.68;1.23;;;10.60;99.90;;;;;;5073258;28;20040;-71
2023/01/17 12:16:38;;;;;;;7.27;1.00;;;10.00;99.90;;;;;;5073097;28;20139;-71
2023/01/17 12:19:31;;;;;;;7.45;1.45;;;9.80;99.90;;;;;;5073281;28;20056;-71
2023/01/17 12:22:26;;;;;;;6.13;1.27;;;9.80;99.90;;;;;;5056304;28;20486;-71
2023/01/17 12:25:23;;;;;;;4.05;0.98;;;9.80;99.80;;;;;;5074221;28;20531;-71
2023/01/17 12:28:08;;;;;;;8.15;1.80;;;10.00;99.70;;;;;;5072880;28;20044;-71
2023/01/17 12:30:56;;;;;;;9.93;1.40;;;10.60;99.70;;;;;;5072862;28;20051;-71
2023/01/17 12:33:51;;;;;;;3.10;0.90;;;11.40;98.10;;;;;;5073627;28;20098;-71
2023/01/17 12:36:35;;;;;;;3.40;1.00;;;12.70;95.80;;;;;;5072641;28;20048;-71
2023/01/17 12:39:06;;;;;;;2.85;0.90;;;13.20;92.90;;;;;;5072615;28;20044;-71
2023/01/17 12:41:51;;;;;;;4.88;1.10;;;12.70;91.70;;;;;;5072632;28;20162;-71
2023/01/17 12:44:19;;;;;;;4.90;0.75;;;12.40;90.70;;;;;;5072866;28;20040;-71
2023/01/17 12:47:01;;;;;;;4.15;0.60;;;11.60;89.50;;;;;;5072712;28;20045;-71
2023/01/17 12:49:32;;;;;;;3.22;0.50;;;11.20;89.10;;;;;;5072491;28;20044;-71
2023/01/17 12:52:18;;;;;;;5.80;0.90;;;11.70;87.00;;;;;;5072441;28;20071;-71
2023/01/17 12:54:51;;;;;;;3.58;0.60;;;12.50;79.40;;;;;;5052140;28;20524;-72
2023/01/17 12:57:22;;;;;;;3.90;0.77;;;13.60;82.40;;;;;;5072407;28;20051;-71
2023/01/17 12:59:59;;;;;;;5.70;0.75;;;14.40;74.90;;;;;;5072292;28;20049;-71
2023/01/17 13:02:37;;;;;;;2.33;0.50;;;14.90;72.90;;;;;;5072289;28;20040;-72
2023/01/17 13:05:09;;;;;;;2.17;0.50;;;14.60;69.80;;;;;;5072519;28;20124;-71
2023/01/17 13:08:09;;;;;;;6.00;0.73;;;14.00;67.40;;;;;;5072455;28;20040;-71
2023/01/17 13:10:46;;;;;;;3.05;0.90;;;13.60;69.30;;;;;;5073994;28;20040;-71
2023/01/17 13:13:21;;;;;;;5.65;1.15;;;12.70;70.30;;;;;;5072166;28;20489;-71
2023/01/17 13:15:53;;;;;;;2.55;0.60;;;12.00;70.00;;;;;;5072157;28;20040;-71
2023/01/17 13:18:24;;;;;;;3.67;0.50;;;11.60;72.70;;;;;;5073568;28;20036;-71
2023/01/17 13:21:26;;;;;;;3.50;0.70;;;11.60;72.10;;;;;;5073574;28;20142;-71
2023/01/17 13:23:57;;;;;;;2.30;0.68;;;11.90;69.00;;;;;;5055275;28;20051;-71
2023/01/17 13:26:38;;;;;;;3.50;0.52;;;12.10;68.40;;;;;;5071731;28;20390;-71
2023/01/17 13:29:09;;;;;;;4.05;0.50;;;12.10;68.50;;;;;;5071830;28;20528;-71
2023/01/17 13:31:43;;;;;;;3.20;0.52;;;12.10;69.70;;;;;;5071961;28;20498;-71
2023/01/17 13:34:40;;;;;;;5.38;1.30;;;12.60;69.80;;;;;;5071901;28;20405;-71
2023/01/17 13:37:30;;;;;;;4.80;0.90;;;13.40;67.50;;;;;;5071905;28;20574;-71
2023/01/17 13:40:24;;;;;;;4.97;0.60;;;14.40;67.30;;;;;;5071744;28;20047;-71
2023/01/17 13:42:56;;;;;;;3.60;0.50;;;15.20;64.10;;;;;;5071781;28;20462;-71
2023/01/17 13:45:29;;;;;;;2.77;0.73;;;15.90;62.10;;;;;;5073300;28;20036;-71
2023/01/17 13:48:15;;;;;;;2.88;0.45;;;16.50;61.00;;;;;;5071967;28;20052;-71
2023/01/17 13:50:48;;;;;;;4.68;0.60;;;16.70;57.90;;;;;;5064551;28;20079;-71
2023/01/17 13:53:32;;;;;;;4.75;0.57;;;17.00;58.80;;;;;;5071935;28;20048;-71
2023/01/17 13:56:17;;;;;;;2.83;0.52;;;17.20;55.80;;;;;;5071560;28;20136;-71
2023/01/17 13:58:56;;;;;;;6.10;0.80;;;17.20;57.80;;;;;;5071517;28;20144;-71
2023/01/17 14:01:22;;;;;;;4.57;0.65;;;17.00;56.20;;;;;;5071734;28;20458;-71
2023/01/17 14:03:53;;;;;;;3.53;0.57;;;16.50;59.20;;;;;;5071901;28;20037;-71
2023/01/17 14:06:43;;;;;;;4.68;0.55;;;15.80;56.60;;;;;;5071522;28;20044;-71
2023/01/17 14:09:14;;;;;;;5.07;0.55;;;14.90;56.20;;;;;;5071566;28;20453;-71
2023/01/17 14:12:04;;;;;;;3.38;0.60;;;14.20;60.40;;;;;;5071580;28;20097;-71
2023/01/17 14:14:39;;;;;;;4.93;0.50;;;13.50;60.70;;;;;;5071524;28;20048;-71
2023/01/17 14:17:19;;;;;;;3.65;0.50;;;12.70;62.30;;;;;;5071582;28;20413;-73
2023/01/17 14:19:47;;;;;;;3.28;0.50;;;12.20;62.50;;;;;;5071459;28;20563;-73
2023/01/17 14:22:37;;;;;;;2.67;0.60;;;11.60;64.30;;;;;;5054750;28;20037;-73
2023/01/17 14:25:18;;;;;;;2.83;0.60;;;10.70;63.80;;;;;;5071413;28;20040;-73
2023/01/17 14:27:47;;;;;;;4.20;0.70;;;10.00;68.00;;;;;;5071650;28;20080;-73
2023/01/17 14:30:16;;;;;;;2.50;0.47;;;10.20;69.30;;;;;;5071214;28;20040;-73
2023/01/17 14:33:15;;;;;;;3.28;0.50;;;10.60;67.50;;;;;;5071544;28;20558;-73
2023/01/17 14:35:57;;;;;;;3.03;0.50;;;10.90;67.10;;;;;;5054400;28;20056;-73
2023/01/17 14:38:26;;;;;;;2.50;0.50;;;11.10;67.50;;;;;;5074191;28;20524;-72
2023/01/17 14:40:58;;;;;;;2.83;0.60;;;11.10;66.10;;;;;;5075267;28;20059;-72
2023/01/17 14:43:27;;;;;;;3.47;0.77;;;10.80;66.80;;;;;;5075126;28;20052;-73
2023/01/17 14:46:05;;;;;;;5.22;0.90;;;10.30;68.10;;;;;;5074840;28;20041;-73